Time;durP1;ratioP1;P1;durP2;ratioP2;P2;SDS_P1;SDS_P2;PMS_P1;PMS_P2;Temp;Humidity;BMP_temperature;BMP_pressure;BME280_temperature;BME280_humidity;BME280_pressure;Samples;Min_cycle;Max_cycle;Signal;HPM_P1;HPM_P2
2022/08/08 00:02:05;;;;;;;4.25;2.55;;;11.40;99.90;;;;;;4893076;29;20189;-43
2022/08/08 00:04:45;;;;;;;4.10;2.50;;;11.60;99.90;;;;;;4895190;29;20223;-45
2022/08/08 00:07:19;;;;;;;5.70;3.00;;;11.20;99.90;;;;;;4935788;28;20059;-44
2022/08/08 00:10:02;;;;;;;5.88;2.30;;;11.60;99.90;;;;;;4937744;28;20154;-48
2022/08/08 00:12:46;;;;;;;3.67;2.13;;;11.40;99.90;;;;;;5028973;28;20079;-48
2022/08/08 00:15:35;;;;;;;4.38;2.70;;;11.40;99.90;;;;;;5051537;28;20112;-50
2022/08/08 00:18:07;;;;;;;3.42;2.20;;;11.50;99.90;;;;;;5050860;28;20414;-47
2022/08/08 00:20:55;;;;;;;3.13;2.28;;;11.30;99.90;;;;;;5050804;28;20040;-50
2022/08/08 00:23:42;;;;;;;5.90;3.00;;;11.40;99.90;;;;;;5051152;28;20591;-49
2022/08/08 00:26:13;;;;;;;5.07;3.03;;;11.30;99.90;;;;;;5049271;28;20114;-47
2022/08/08 00:28:47;;;;;;;5.88;2.55;;;11.30;99.90;;;;;;5051878;28;20036;-49
2022/08/08 00:31:32;;;;;;;5.10;3.60;;;11.30;99.90;;;;;;5051530;28;21309;-48
2022/08/08 00:37:56;;;;;;;3.42;2.08;;;11.30;99.90;;;;;;5029012;28;20045;-49
2022/08/08 00:40:28;;;;;;;4.13;2.78;;;11.20;99.90;;;;;;5030513;28;20041;-49
2022/08/08 00:43:18;;;;;;;4.75;3.20;;;11.20;99.90;;;;;;5031877;28;20593;-48
2022/08/08 00:46:02;;;;;;;4.00;2.60;;;11.20;99.90;;;;;;5032208;28;21441;-48
2022/08/08 00:48:48;;;;;;;4.57;2.80;;;11.20;99.90;;;;;;5032686;28;20068;-49
2022/08/08 00:51:44;;;;;;;7.45;5.03;;;11.20;99.90;;;;;;5033167;28;20068;-52
2022/08/08 00:54:34;;;;;;;5.75;4.28;;;11.10;99.90;;;;;;5033265;28;20507;-48
2022/08/08 00:57:39;;;;;;;7.22;4.50;;;11.10;99.90;;;;;;5032386;28;20388;-49
2022/08/08 01:00:10;;;;;;;15.27;6.05;;;11.00;99.90;;;;;;4973254;28;20046;-48
2022/08/08 01:03:03;;;;;;;5.10;3.63;;;11.00;99.90;;;;;;4972795;28;20061;-50
2022/08/08 01:05:34;;;;;;;6.40;3.95;;;10.90;99.90;;;;;;4972391;28;20821;-48
2022/08/08 01:08:02;;;;;;;10.15;4.60;;;10.90;99.90;;;;;;4972842;28;20110;-49
2022/08/08 01:10:43;;;;;;;6.00;4.63;;;11.50;99.90;;;;;;4972741;28;20043;-49
2022/08/08 01:13:30;;;;;;;8.20;5.85;;;10.90;99.90;;;;;;4965621;28;20050;-49
2022/08/08 01:16:18;;;;;;;5.70;3.92;;;11.00;99.90;;;;;;4976014;28;20104;-52
2022/08/08 01:19:06;;;;;;;9.05;3.90;;;10.80;99.90;;;;;;4991953;28;20576;-48
2022/08/08 01:22:06;;;;;;;5.38;3.80;;;10.90;99.90;;;;;;4991301;28;20050;-49
2022/08/08 01:25:13;;;;;;;5.95;3.97;;;10.80;99.90;;;;;;4972766;28;20125;-50
2022/08/08 01:28:12;;;;;;;6.03;3.80;;;10.90;99.90;;;;;;4973275;28;20257;-50
2022/08/08 01:31:15;;;;;;;6.78;3.70;;;10.70;99.90;;;;;;4965631;28;20537;-48
2022/08/08 01:34:03;;;;;;;;;;;10.80;99.90;;;;;;4987670;28;20053;-49
2022/08/08 01:37:04;;;;;;;6.22;2.80;;;10.60;99.90;;;;;;5017068;28;19924;-48
2022/08/08 01:39:52;;;;;;;4.00;2.50;;;10.60;99.90;;;;;;5018991;28;20116;-48
2022/08/08 01:42:50;;;;;;;6.05;3.00;;;10.60;99.90;;;;;;5017438;28;20585;-48
2022/08/08 01:45:19;;;;;;;5.18;3.05;;;10.70;99.90;;;;;;5018251;28;20555;-48
2022/08/08 01:48:06;;;;;;;5.60;3.58;;;10.80;99.90;;;;;;5028587;28;20475;-48
2022/08/08 01:50:49;;;;;;;5.43;3.83;;;10.50;99.90;;;;;;5015313;28;20110;-47
2022/08/08 01:53:44;;;;;;;4.97;3.55;;;10.80;99.90;;;;;;5018160;28;20807;-47
2022/08/08 01:56:19;;;;;;;6.95;3.13;;;10.80;99.90;;;;;;5013922;28;20037;-53
2022/08/08 01:59:11;;;;;;;4.85;2.75;;;10.80;99.90;;;;;;5013882;28;20084;-53
2022/08/08 02:01:45;;;;;;;;;;;10.90;99.90;;;;;;5041172;28;20135;-48
2022/08/08 02:04:21;;;;;;;6.38;3.15;;;12.10;99.90;;;;;;5054532;28;20506;-49
2022/08/08 02:07:09;;;;;;;7.78;3.33;;;10.70;99.90;;;;;;5054783;28;20106;-49
2022/08/08 02:09:59;;;;;;;5.05;2.90;;;10.90;99.90;;;;;;5042606;28;20052;-49
2022/08/08 02:12:33;;;;;;;5.05;3.10;;;11.00;99.90;;;;;;5053641;28;20044;-48
2022/08/08 02:15:14;;;;;;;4.93;2.90;;;11.00;99.90;;;;;;5054274;28;20101;-49
2022/08/08 02:17:55;;;;;;;5.15;2.83;;;11.10;99.90;;;;;;5053125;28;20127;-50
2022/08/08 02:20:30;;;;;;;5.75;2.90;;;11.00;99.90;;;;;;5052676;28;20036;-51
2022/08/08 02:23:34;;;;;;;5.88;2.70;;;10.80;99.90;;;;;;5053074;28;20045;-48
2022/08/08 02:26:23;;;;;;;5.50;3.10;;;11.00;99.90;;;;;;5030624;28;20044;-51
2022/08/08 02:29:12;;;;;;;6.28;3.55;;;10.80;99.90;;;;;;5029851;28;20103;-48
2022/08/08 02:32:05;;;;;;;5.55;3.85;;;11.00;99.90;;;;;;5029377;28;20068;-48
2022/08/08 02:34:40;;;;;;;6.13;3.40;;;10.90;99.90;;;;;;5012612;28;20056;-50
2022/08/08 02:37:44;;;;;;;6.20;2.95;;;11.00;99.90;;;;;;5029091;28;20048;-48
2022/08/08 02:40:18;;;;;;;6.25;3.70;;;10.90;99.90;;;;;;4961664;28;20587;-48
2022/08/08 02:43:31;;;;;;;5.10;3.35;;;11.40;99.90;;;;;;4959129;28;20069;-47
2022/08/08 02:46:33;;;;;;;5.07;3.47;;;10.80;99.90;;;;;;4877184;29;20060;-49
2022/08/08 02:49:50;;;;;;;4.35;2.40;;;10.80;99.90;;;;;;4877583;29;20084;-49
2022/08/08 02:52:24;;;;;;;5.45;3.50;;;10.60;99.90;;;;;;4854327;29;20049;-48
2022/08/08 02:55:02;;;;;;;6.18;3.00;;;10.60;99.90;;;;;;4853110;29;20049;-49
2022/08/08 02:57:52;;;;;;;8.13;3.10;;;11.30;99.90;;;;;;4854500;29;20419;-47
2022/08/08 03:00:41;;;;;;;5.15;2.90;;;10.70;99.90;;;;;;4865513;29;20056;-50
2022/08/08 03:03:33;;;;;;;5.50;3.03;;;10.70;99.90;;;;;;4873954;29;20064;-48
2022/08/08 03:06:21;;;;;;;6.97;3.33;;;10.60;99.90;;;;;;4821293;29;20058;-48
2022/08/08 03:09:24;;;;;;;5.40;3.40;;;10.70;99.90;;;;;;4824649;29;20069;-49
2022/08/08 03:12:27;;;;;;;6.28;3.47;;;10.80;99.90;;;;;;4821354;29;20054;-49
2022/08/08 03:15:08;;;;;;;6.22;3.25;;;10.90;99.90;;;;;;4820823;29;20459;-48
2022/08/08 03:17:39;;;;;;;6.03;3.78;;;10.80;99.90;;;;;;4852308;29;20087;-51
2022/08/08 03:20:05;;;;;;;6.72;4.03;;;10.80;99.90;;;;;;4875553;29;20036;-49
2022/08/08 03:22:33;;;;;;;10.60;3.85;;;10.80;99.90;;;;;;4890549;29;20052;-50
2022/08/08 03:25:04;;;;;;;6.75;3.60;;;10.80;99.90;;;;;;4913694;29;20071;-51
2022/08/08 03:28:01;;;;;;;5.50;3.67;;;10.90;99.90;;;;;;4930811;28;20799;-49
2022/08/08 03:30:27;;;;;;;5.55;3.90;;;11.00;99.90;;;;;;4909222;29;20052;-51
2022/08/08 03:35:40;;;;;;;7.70;5.15;;;12.20;99.90;;;;;;4909187;29;20146;-52
2022/08/08 03:38:06;;;;;;;11.02;5.05;;;11.80;99.90;;;;;;4909537;29;20611;-49
2022/08/08 03:40:33;;;;;;;7.38;6.30;;;11.10;99.90;;;;;;4909543;29;20289;-50
2022/08/08 03:42:59;;;;;;;10.43;6.07;;;11.10;99.90;;;;;;4937414;28;20057;-50
2022/08/08 03:45:26;;;;;;;9.05;5.50;;;11.60;99.90;;;;;;4970588;28;20042;-48
2022/08/08 03:48:04;;;;;;;9.07;4.95;;;11.20;99.90;;;;;;4985763;28;20117;-49
2022/08/08 03:50:32;;;;;;;8.43;5.43;;;11.10;99.90;;;;;;4969942;28;20100;-50
2022/08/08 03:53:18;;;;;;;8.80;5.90;;;12.30;99.90;;;;;;4969687;28;20189;-51
2022/08/08 03:55:48;;;;;;;8.50;5.75;;;11.10;99.90;;;;;;4968875;28;20042;-50
2022/08/08 03:58:32;;;;;;;7.20;5.60;;;12.00;99.90;;;;;;4969981;28;20562;-51
2022/08/08 04:00:58;;;;;;;10.02;5.63;;;11.30;99.90;;;;;;4969829;28;20453;-51
2022/08/08 04:03:31;;;;;;;7.93;5.43;;;12.00;99.90;;;;;;4969958;28;20034;-51
2022/08/08 04:05:57;;;;;;;7.40;5.20;;;11.50;99.90;;;;;;4969580;28;20074;-51
2022/08/08 04:08:24;;;;;;;8.07;5.32;;;11.40;99.90;;;;;;5045018;28;20140;-51
2022/08/08 04:10:51;;;;;;;9.25;5.30;;;12.40;99.90;;;;;;5050665;28;20129;-50
2022/08/08 04:13:19;;;;;;;9.98;5.00;;;11.30;99.90;;;;;;5051877;28;20562;-51
2022/08/08 04:15:45;;;;;;;7.15;5.57;;;11.50;99.90;;;;;;5055713;28;20045;-51
2022/08/08 04:18:11;;;;;;;8.93;5.93;;;11.40;99.90;;;;;;5055025;28;20044;-52
2022/08/08 04:20:37;;;;;;;12.20;6.30;;;11.40;99.90;;;;;;5054754;28;20548;-49
2022/08/08 04:23:03;;;;;;;9.63;6.25;;;12.20;99.90;;;;;;5056470;28;20281;-52
2022/08/08 04:25:30;;;;;;;9.35;6.40;;;12.10;99.90;;;;;;5055402;28;20057;-50
2022/08/08 04:27:55;;;;;;;9.77;6.03;;;11.40;99.90;;;;;;5055754;28;20131;-52
2022/08/08 04:30:21;;;;;;;10.27;6.30;;;12.70;99.90;;;;;;5055688;28;20520;-51
2022/08/08 04:32:47;;;;;;;8.15;6.30;;;11.80;99.90;;;;;;5055103;28;20036;-52
2022/08/08 04:35:15;;;;;;;8.45;5.80;;;11.80;99.90;;;;;;5055322;28;20743;-52
2022/08/08 04:37:40;;;;;;;8.88;5.72;;;12.30;99.90;;;;;;5054800;28;20037;-53
2022/08/08 04:40:07;;;;;;;9.20;6.50;;;13.00;99.90;;;;;;5053084;28;20518;-53
2022/08/08 04:42:33;;;;;;;10.93;6.30;;;11.80;99.90;;;;;;5055342;28;20083;-52
2022/08/08 04:45:00;;;;;;;8.02;6.00;;;13.20;99.90;;;;;;5055253;28;20064;-48
2022/08/08 04:47:25;;;;;;;10.10;6.25;;;13.10;99.90;;;;;;5055514;28;20041;-54
2022/08/08 04:49:53;;;;;;;13.30;6.43;;;12.80;99.90;;;;;;5056959;28;20056;-52
2022/08/08 04:52:19;;;;;;;12.50;7.32;;;12.00;99.90;;;;;;5056429;28;20043;-53
2022/08/08 04:54:45;;;;;;;10.82;7.00;;;12.10;99.90;;;;;;5054045;28;20048;-54
2022/08/08 04:57:13;;;;;;;9.45;6.68;;;13.40;99.90;;;;;;5055042;28;20028;-53
2022/08/08 04:59:39;;;;;;;8.88;7.22;;;13.30;99.90;;;;;;5054438;28;20054;-53
2022/08/08 05:02:04;;;;;;;14.02;7.10;;;12.80;99.90;;;;;;5054564;28;20041;-52
2022/08/08 05:04:30;;;;;;;11.50;7.28;;;12.30;99.90;;;;;;5054578;28;20520;-52
2022/08/08 05:06:56;;;;;;;11.93;7.88;;;14.60;99.90;;;;;;5054791;28;20408;-52
2022/08/08 05:09:22;;;;;;;13.52;7.53;;;12.30;99.90;;;;;;5055802;28;20055;-52
2022/08/08 05:11:48;;;;;;;8.65;7.10;;;12.40;99.90;;;;;;5055012;28;20055;-49
2022/08/08 05:14:15;;;;;;;12.88;7.05;;;12.60;99.90;;;;;;5054771;28;20097;-51
2022/08/08 05:16:41;;;;;;;12.27;7.03;;;12.70;99.90;;;;;;5052870;28;20070;-52
2022/08/08 05:19:11;;;;;;;10.93;8.18;;;12.40;99.90;;;;;;5052779;28;20041;-52
2022/08/08 05:21:41;;;;;;;13.18;7.30;;;13.90;99.90;;;;;;5053970;28;20637;-53
2022/08/08 05:24:08;;;;;;;14.70;8.25;;;12.60;99.90;;;;;;5054244;28;20559;-49
2022/08/08 05:26:40;;;;;;;11.20;7.80;;;12.60;99.90;;;;;;5053302;28;20032;-53
2022/08/08 05:29:09;;;;;;;13.93;8.30;;;13.40;99.90;;;;;;5053924;28;20475;-51
2022/08/08 05:31:36;;;;;;;10.38;7.82;;;14.40;99.90;;;;;;5051150;28;21137;-50
2022/08/08 05:34:29;;;;;;;13.27;8.98;;;12.90;99.90;;;;;;5053742;28;20090;-49
2022/08/08 05:36:57;;;;;;;12.32;7.45;;;13.00;99.90;;;;;;5028475;28;20045;-52
2022/08/08 05:39:24;;;;;;;12.45;8.05;;;14.40;99.90;;;;;;5028121;28;20663;-53
2022/08/08 05:41:51;;;;;;;12.60;8.30;;;14.10;99.90;;;;;;5027117;28;20096;-51
2022/08/08 05:44:25;;;;;;;8.65;7.75;;;13.20;99.90;;;;;;5027770;28;20056;-47
2022/08/08 05:46:55;;;;;;;14.80;8.07;;;13.40;99.90;;;;;;5025180;28;20064;-51
2022/08/08 05:49:21;;;;;;;15.20;8.13;;;14.40;99.90;;;;;;5025662;28;20501;-50
2022/08/08 05:51:48;;;;;;;11.25;7.45;;;14.80;99.90;;;;;;5027368;28;20055;-52
2022/08/08 05:54:15;;;;;;;13.60;9.02;;;13.90;99.90;;;;;;5026626;28;20053;-50
2022/08/08 05:56:42;;;;;;;12.38;7.57;;;13.70;99.90;;;;;;5027407;28;20134;-50
2022/08/08 05:59:31;;;;;;;14.77;7.93;;;13.70;99.90;;;;;;5023455;28;20052;-53
2022/08/08 06:01:57;;;;;;;10.45;7.38;;;15.50;99.90;;;;;;5027735;28;20095;-54
2022/08/08 06:04:26;;;;;;;14.15;7.80;;;14.00;99.90;;;;;;5025514;28;20566;-52
2022/08/08 06:06:54;;;;;;;18.58;7.93;;;15.30;99.90;;;;;;5027194;28;20144;-52
2022/08/08 06:09:31;;;;;;;14.77;8.30;;;14.30;99.90;;;;;;5026958;28;21413;-51
2022/08/08 06:12:02;;;;;;;11.27;7.20;;;14.20;99.90;;;;;;5029625;28;20049;-50
2022/08/08 06:14:29;;;;;;;11.53;7.77;;;14.10;99.90;;;;;;5047178;28;20048;-52
2022/08/08 06:17:02;;;;;;;9.93;6.32;;;14.20;99.90;;;;;;5054184;28;20072;-52
2022/08/08 06:19:28;;;;;;;13.73;7.82;;;15.40;99.90;;;;;;5053007;28;20619;-52
2022/08/08 06:21:55;;;;;;;9.63;7.32;;;14.30;99.90;;;;;;5053957;28;20143;-51
2022/08/08 06:24:22;;;;;;;15.38;7.13;;;14.20;99.90;;;;;;5053891;28;20671;-53
2022/08/08 06:26:59;;;;;;;13.98;7.32;;;14.40;99.90;;;;;;5053838;28;20055;-54
2022/08/08 06:29:34;;;;;;;9.48;6.50;;;16.20;99.90;;;;;;5054577;28;20089;-51
2022/08/08 06:32:02;;;;;;;14.05;6.90;;;13.50;99.90;;;;;;5051989;28;20055;-53
2022/08/08 06:34:35;;;;;;;11.30;5.85;;;15.60;99.90;;;;;;5052794;28;20404;-48
2022/08/08 06:37:02;;;;;;;10.65;5.80;;;15.40;99.90;;;;;;5052593;28;20647;-50
2022/08/08 06:39:30;;;;;;;12.25;6.63;;;15.40;99.90;;;;;;5052999;28;20041;-53
2022/08/08 06:41:59;;;;;;;8.82;5.93;;;15.70;99.90;;;;;;5052660;28;20036;-54
2022/08/08 06:44:26;;;;;;;12.85;6.28;;;15.70;99.90;;;;;;5053475;28;20290;-49
2022/08/08 06:46:52;;;;;;;10.43;6.28;;;16.40;99.90;;;;;;5052429;28;20071;-53
2022/08/08 06:49:18;;;;;;;17.05;7.00;;;16.10;99.90;;;;;;5053173;28;20086;-52
2022/08/08 06:51:44;;;;;;;10.20;4.85;;;17.00;99.90;;;;;;5052190;28;20040;-51
2022/08/08 06:54:14;;;;;;;10.00;4.90;;;17.30;99.90;;;;;;5053389;28;20558;-54
2022/08/08 06:56:42;;;;;;;12.23;5.22;;;17.80;99.90;;;;;;5053772;28;20879;-54
2022/08/08 06:59:08;;;;;;;8.75;4.47;;;18.20;99.90;;;;;;5052537;28;20127;-52
2022/08/08 07:01:43;;;;;;;10.20;4.10;;;19.60;99.90;;;;;;5051661;28;20404;-56
2022/08/08 07:04:10;;;;;;;7.65;3.53;;;20.00;96.40;;;;;;5053818;28;20055;-56
2022/08/08 07:06:44;;;;;;;9.43;3.10;;;21.30;87.40;;;;;;5051425;28;20068;-55
2022/08/08 07:09:19;;;;;;;10.43;3.50;;;22.50;28.10;;;;;;5051867;28;20645;-55
2022/08/08 07:11:49;;;;;;;8.75;3.22;;;23.60;1.00;;;;;;5053251;28;20044;-55
2022/08/08 07:14:26;;;;;;;7.15;2.65;;;24.60;1.00;;;;;;5052907;28;20082;-54
2022/08/08 07:17:11;;;;;;;6.80;2.63;;;23.80;1.00;;;;;;5052732;28;20119;-58
2022/08/08 07:19:39;;;;;;;8.52;2.63;;;24.40;99.90;;;;;;5052767;28;20480;-56
2022/08/08 07:22:07;;;;;;;8.52;2.20;;;25.60;99.90;;;;;;5052457;28;20032;-57
2022/08/08 07:24:42;;;;;;;5.30;2.00;;;26.50;99.90;;;;;;5051779;28;21040;-57
2022/08/08 07:27:11;;;;;;;7.05;1.95;;;27.40;99.90;;;;;;5052848;28;20032;-57
2022/08/08 07:29:38;;;;;;;4.38;1.40;;;27.80;99.90;;;;;;5051144;28;20512;-57
2022/08/08 07:32:06;;;;;;;5.20;1.58;;;28.40;99.90;;;;;;5049837;28;20269;-57
2022/08/08 07:34:34;;;;;;;5.07;1.33;;;28.60;99.90;;;;;;5052727;28;20044;-58
2022/08/08 07:37:02;;;;;;;3.38;1.40;;;29.20;99.90;;;;;;5053557;28;20073;-58
2022/08/08 07:39:30;;;;;;;5.32;1.40;;;29.30;99.90;;;;;;5052915;28;20043;-58
2022/08/08 07:41:58;;;;;;;6.70;1.80;;;29.50;99.90;;;;;;5053178;28;20492;-59
2022/08/08 07:44:24;;;;;;;24.25;2.17;;;29.60;99.90;;;;;;5053688;28;20686;-58
2022/08/08 07:46:50;;;;;;;7.32;1.20;;;29.20;99.90;;;;;;5052585;28;20072;-58
2022/08/08 07:49:16;;;;;;;2.90;0.80;;;28.90;99.70;;;;;;5052971;28;20363;-58
2022/08/08 07:51:43;;;;;;;5.32;1.40;;;27.70;99.90;;;;;;5051801;28;20131;-57
2022/08/08 07:54:36;;;;;;;4.40;1.00;;;26.90;99.90;;;;;;5052276;28;20047;-58
2022/08/08 07:57:16;;;;;;;5.93;1.55;;;26.40;99.90;;;;;;5052445;28;20040;-58
2022/08/08 08:00:08;;;;;;;4.03;1.23;;;25.40;99.90;;;;;;5052192;28;20508;-58
2022/08/08 08:02:39;;;;;;;7.30;1.55;;;25.10;99.90;;;;;;5032213;28;20103;-58
2022/08/08 08:05:27;;;;;;;4.93;1.40;;;24.70;99.90;;;;;;5048999;28;20458;-58
2022/08/08 08:08:09;;;;;;;3.25;1.00;;;24.30;99.90;;;;;;5048389;28;20052;-58
2022/08/08 08:10:37;;;;;;;6.25;1.50;;;23.80;99.90;;;;;;5049043;28;20119;-58
2022/08/08 08:13:33;;;;;;;7.25;1.27;;;23.10;99.90;;;;;;5049028;28;20041;-58
2022/08/08 08:16:05;;;;;;;7.28;1.65;;;22.90;99.90;;;;;;5048688;28;20647;-59
2022/08/08 08:18:51;;;;;;;7.75;1.30;;;22.40;99.90;;;;;;5048604;28;20047;-59
2022/08/08 08:21:20;;;;;;;4.97;1.15;;;22.10;99.90;;;;;;5048735;28;20057;-57
2022/08/08 08:23:45;;;;;;;4.95;1.20;;;22.10;99.90;;;;;;5049492;28;20052;-57
2022/08/08 08:26:15;;;;;;;4.47;1.02;;;21.80;99.90;;;;;;5048442;28;20056;-57
2022/08/08 08:28:41;;;;;;;7.10;1.15;;;22.00;99.90;;;;;;5049405;28;20715;-57
2022/08/08 08:31:07;;;;;;;4.65;1.05;;;21.80;99.90;;;;;;5048096;28;20123;-57
2022/08/08 08:33:33;;;;;;;4.32;0.88;;;21.80;99.90;;;;;;5047764;28;20079;-57
2022/08/08 08:36:00;;;;;;;4.63;0.88;;;21.70;99.90;;;;;;5048415;28;20040;-57
2022/08/08 08:38:25;;;;;;;5.55;1.05;;;21.50;99.90;;;;;;5048814;28;20067;-56
2022/08/08 08:40:51;;;;;;;5.05;0.98;;;22.30;99.90;;;;;;5052239;28;20079;-57
2022/08/08 08:43:18;;;;;;;4.55;0.90;;;21.70;99.90;;;;;;5052990;28;20052;-56
2022/08/08 08:45:46;;;;;;;5.20;1.20;;;21.60;99.90;;;;;;5051494;28;20115;-57
2022/08/08 08:48:15;;;;;;;9.73;1.23;;;21.60;99.90;;;;;;5052137;28;20044;-56
2022/08/08 08:50:43;;;;;;;5.75;0.90;;;21.60;99.90;;;;;;5052008;28;20060;-57
2022/08/08 08:53:11;;;;;;;4.32;0.82;;;21.60;99.90;;;;;;5053444;28;20047;-56
2022/08/08 08:55:38;;;;;;;11.55;1.20;;;21.50;99.90;;;;;;5053505;28;20546;-56
2022/08/08 08:58:07;;;;;;;5.10;1.10;;;21.30;99.90;;;;;;5053395;28;20044;-56
2022/08/08 09:00:36;;;;;;;4.60;0.88;;;21.60;99.90;;;;;;5052630;28;20070;-56
2022/08/08 09:03:07;;;;;;;3.85;1.10;;;23.80;99.90;;;;;;5055179;28;20044;-56
2022/08/08 09:05:38;;;;;;;3.95;0.90;;;21.60;99.90;;;;;;5055425;28;20037;-55
2022/08/08 09:08:06;;;;;;;5.82;1.20;;;21.50;99.90;;;;;;5054976;28;20033;-56
2022/08/08 09:10:36;;;;;;;5.00;1.30;;;21.70;99.90;;;;;;5055305;28;20432;-57
2022/08/08 09:13:05;;;;;;;6.22;0.98;;;21.50;99.90;;;;;;5055124;28;20044;-55
2022/08/08 09:15:31;;;;;;;5.15;1.10;;;23.10;99.90;;;;;;5053970;28;20512;-56
2022/08/08 09:17:58;;;;;;;4.97;0.80;;;21.20;99.90;;;;;;5055205;28;20047;-55
2022/08/08 09:20:26;;;;;;;4.13;1.08;;;21.30;99.90;;;;;;5054945;28;20720;-56
2022/08/08 09:22:55;;;;;;;6.13;1.25;;;21.20;99.90;;;;;;5053907;28;20041;-55
2022/08/08 09:25:21;;;;;;;4.75;0.98;;;23.70;99.90;;;;;;5054265;28;20055;-57
2022/08/08 09:27:47;;;;;;;4.82;1.00;;;21.30;99.90;;;;;;5055173;28;20052;-56
2022/08/08 09:30:15;;;;;;;4.63;1.00;;;21.60;99.90;;;;;;5054563;28;20090;-56
2022/08/08 09:32:47;;;;;;;5.18;0.90;;;23.60;99.90;;;;;;5052463;28;20124;-56
2022/08/08 09:35:19;;;;;;;5.72;0.88;;;21.20;99.90;;;;;;5054174;28;20054;-55
2022/08/08 09:37:47;;;;;;;4.53;0.90;;;21.30;99.90;;;;;;5055073;28;20726;-55
2022/08/08 09:40:16;;;;;;;4.43;0.93;;;23.60;99.90;;;;;;5055535;28;20492;-54
2022/08/08 09:42:47;;;;;;;3.85;0.95;;;21.50;99.90;;;;;;5053869;28;20037;-56
2022/08/08 09:45:19;;;;;;;;;;;21.40;99.90;;;;;;5054412;28;20050;-56
2022/08/08 09:47:48;;;;;;;5.07;1.00;;;21.40;99.90;;;;;;5087245;28;20107;-55
2022/08/08 09:50:22;;;;;;;4.20;0.90;;;21.60;99.90;;;;;;5054624;28;20040;-56
2022/08/08 09:52:50;;;;;;;4.10;0.80;;;21.30;99.90;;;;;;5055272;28;20238;-56
2022/08/08 09:55:16;;;;;;;3.55;0.95;;;21.60;99.90;;;;;;5055640;28;20036;-54
2022/08/08 09:57:45;;;;;;;6.50;1.02;;;21.50;99.90;;;;;;5054868;28;20049;-55
2022/08/08 10:00:14;;;;;;;3.58;0.95;;;21.50;99.90;;;;;;5054402;28;20068;-54
2022/08/08 10:02:46;;;;;;;3.65;0.77;;;21.50;1.00;;;;;;5054818;28;20044;-55
2022/08/08 10:05:24;;;;;;;4.35;0.90;;;21.80;99.90;;;;;;5054820;28;20591;-55
2022/08/08 10:08:10;;;;;;;3.40;0.80;;;21.30;99.90;;;;;;5055801;28;20047;-56
2022/08/08 10:10:41;;;;;;;3.33;0.95;;;21.20;99.90;;;;;;5028221;28;20049;-55
2022/08/08 10:13:20;;;;;;;2.65;0.70;;;22.60;99.90;;;;;;5027856;28;20584;-56
2022/08/08 10:15:47;;;;;;;2.63;0.70;;;21.10;99.90;;;;;;5028069;28;20067;-55
2022/08/08 10:18:23;;;;;;;4.45;0.68;;;21.20;99.90;;;;;;5024215;28;20472;-54
2022/08/08 10:20:52;;;;;;;3.15;0.80;;;21.30;99.90;;;;;;5012432;28;20662;-53
2022/08/08 10:23:36;;;;;;;8.88;0.90;;;23.20;99.90;;;;;;5027785;28;20110;-54
2022/08/08 10:26:04;;;;;;;4.28;0.70;;;21.40;99.90;;;;;;5027582;28;20044;-55
2022/08/08 10:28:31;;;;;;;2.45;0.90;;;21.60;99.90;;;;;;5027818;28;20053;-55
2022/08/08 10:30:59;;;;;;;5.75;0.90;;;23.00;99.90;;;;;;5026216;28;20053;-54
2022/08/08 10:33:32;;;;;;;7.10;1.10;;;21.60;99.90;;;;;;5025210;28;20088;-55
2022/08/08 10:36:03;;;;;;;6.18;1.25;;;21.50;99.90;;;;;;5026745;28;20452;-53
2022/08/08 10:38:31;;;;;;;5.13;1.17;;;21.70;99.90;;;;;;5028981;28;20523;-53
2022/08/08 10:41:03;;;;;;;6.53;1.30;;;21.40;99.90;;;;;;5027678;28;20041;-55
2022/08/08 10:43:38;;;;;;;4.82;0.90;;;21.20;99.90;;;;;;5027726;28;20037;-55
2022/08/08 10:46:24;;;;;;;4.55;1.20;;;21.30;99.90;;;;;;5023825;28;20041;-55
2022/08/08 10:48:55;;;;;;;5.22;0.90;;;21.40;99.90;;;;;;5051148;28;20040;-54
2022/08/08 10:51:22;;;;;;;5.25;1.00;;;21.40;99.90;;;;;;5052378;28;20044;-55
2022/08/08 10:53:49;;;;;;;4.90;0.80;;;21.30;99.90;;;;;;5052078;28;20075;-54
2022/08/08 10:56:16;;;;;;;4.43;1.02;;;21.30;99.90;;;;;;5053962;28;20048;-53
2022/08/08 10:58:42;;;;;;;7.90;1.00;;;21.40;1.00;;;;;;5052097;28;20050;-52
2022/08/08 11:01:08;;;;;;;3.67;1.10;;;21.30;53.40;;;;;;5052489;28;20036;-55
2022/08/08 11:03:44;;;;;;;6.72;1.00;;;21.10;1.00;;;;;;5052143;28;20064;-54
2022/08/08 11:06:11;;;;;;;4.28;1.05;;;21.30;95.90;;;;;;5052178;28;20044;-53
2022/08/08 11:08:38;;;;;;;3.78;0.85;;;22.10;1.00;;;;;;5052376;28;20058;-54
2022/08/08 11:11:09;;;;;;;5.05;0.95;;;23.40;99.90;;;;;;5052039;28;20607;-54
2022/08/08 11:13:43;;;;;;;6.50;1.45;;;21.40;99.90;;;;;;5053427;28;20036;-55
2022/08/08 11:16:21;;;;;;;6.55;1.58;;;21.40;1.00;;;;;;5051862;28;20034;-55
2022/08/08 11:18:49;;;;;;;5.28;1.15;;;21.50;99.90;;;;;;5051881;28;20048;-50
2022/08/08 11:21:17;;;;;;;2.40;0.88;;;21.60;99.90;;;;;;5052395;28;20033;-53
2022/08/08 11:23:43;;;;;;;5.43;1.13;;;22.40;99.90;;;;;;5050610;28;20068;-54
2022/08/08 11:26:13;;;;;;;5.70;1.17;;;21.60;90.60;;;;;;5051472;28;20078;-51
2022/08/08 11:28:40;;;;;;;4.70;1.30;;;21.50;99.90;;;;;;5054704;28;20079;-54
2022/08/08 11:31:07;;;;;;;5.78;1.13;;;21.30;99.90;;;;;;5052828;28;20120;-52
2022/08/08 11:33:36;;;;;;;6.45;1.50;;;21.30;1.00;;;;;;5052643;28;20288;-53
2022/08/08 11:36:02;;;;;;;5.30;1.10;;;21.50;1.00;;;;;;5052256;28;20064;-50
2022/08/08 11:38:29;;;;;;;7.43;1.20;;;21.50;97.00;;;;;;5052498;28;20036;-49
2022/08/08 11:40:55;;;;;;;7.30;1.02;;;21.30;98.90;;;;;;5053145;28;20040;-52
2022/08/08 11:43:27;;;;;;;3.60;1.02;;;21.70;1.00;;;;;;5052639;28;20036;-50
2022/08/08 11:45:55;;;;;;;4.15;1.08;;;21.80;1.00;;;;;;5051763;28;20064;-53
2022/08/08 11:48:22;;;;;;;5.80;1.23;;;21.90;99.90;;;;;;5051046;28;20040;-51
2022/08/08 11:50:49;;;;;;;4.68;1.15;;;21.70;99.90;;;;;;5051174;28;20105;-52
2022/08/08 11:53:15;;;;;;;5.22;1.17;;;22.00;99.90;;;;;;5051967;28;20574;-51
2022/08/08 11:55:49;;;;;;;5.93;1.27;;;22.10;99.90;;;;;;5052436;28;20044;-53
2022/08/08 11:58:15;;;;;;;5.85;1.17;;;22.20;53.50;;;;;;5052616;28;20623;-48
2022/08/08 12:00:52;;;;;;;5.10;1.02;;;22.20;94.80;;;;;;5050950;28;20047;-51
2022/08/08 12:03:23;;;;;;;14.65;1.45;;;22.20;75.40;;;;;;5051962;28;20044;-51
2022/08/08 12:05:51;;;;;;;4.15;1.13;;;22.10;99.90;;;;;;5053062;28;20091;-48
2022/08/08 12:08:29;;;;;;;2.67;0.80;;;22.40;99.90;;;;;;5051431;28;20051;-48
2022/08/08 12:11:03;;;;;;;4.50;1.00;;;21.70;99.90;;;;;;5051432;28;20041;-49
2022/08/08 12:13:29;;;;;;;5.97;1.08;;;21.70;99.90;;;;;;5051820;28;20492;-53
2022/08/08 12:16:09;;;;;;;4.18;1.00;;;21.70;99.90;;;;;;5049650;28;20288;-50
2022/08/08 12:18:46;;;;;;;3.55;0.95;;;21.40;99.90;;;;;;5051594;28;20089;-48
2022/08/08 12:21:25;;;;;;;3.05;0.93;;;21.60;99.90;;;;;;5051910;28;20063;-50
2022/08/08 12:24:07;;;;;;;3.03;0.82;;;21.60;99.90;;;;;;5051093;28;20063;-50
2022/08/08 12:26:48;;;;;;;4.93;0.90;;;21.40;1.00;;;;;;5051423;28;20040;-49
2022/08/08 12:29:33;;;;;;;3.97;0.90;;;21.40;4.20;;;;;;5052085;28;20105;-50
2022/08/08 12:32:17;;;;;;;4.95;0.98;;;21.30;1.00;;;;;;5051728;28;20098;-49
2022/08/08 12:34:42;;;;;;;3.22;0.98;;;21.50;99.90;;;;;;5053635;28;20052;-48
2022/08/08 12:37:25;;;;;;;2.67;0.80;;;21.50;99.90;;;;;;5056584;28;20040;-52
2022/08/08 12:39:52;;;;;;;4.22;1.30;;;23.10;99.90;;;;;;5055348;28;20044;-52
2022/08/08 12:42:18;;;;;;;6.75;1.13;;;21.40;99.90;;;;;;5055402;28;22460;-53
2022/08/08 12:44:46;;;;;;;2.70;0.70;;;21.50;99.90;;;;;;5056672;28;20480;-52
2022/08/08 12:47:14;;;;;;;4.53;0.95;;;21.90;99.90;;;;;;5056327;28;20040;-50
2022/08/08 12:49:43;;;;;;;2.85;1.15;;;21.70;99.90;;;;;;5054326;28;20040;-50
2022/08/08 12:52:19;;;;;;;4.32;0.88;;;24.00;99.90;;;;;;5055400;28;20079;-48
2022/08/08 12:54:44;;;;;;;3.53;0.73;;;22.00;99.90;;;;;;5055407;28;20059;-49
2022/08/08 12:57:19;;;;;;;3.90;0.88;;;22.00;99.90;;;;;;5055343;28;20967;-53
2022/08/08 12:59:50;;;;;;;2.30;0.80;;;21.80;99.90;;;;;;5054054;28;20056;-49
2022/08/08 13:02:24;;;;;;;3.85;0.95;;;22.00;99.90;;;;;;5055078;28;20866;-50
2022/08/08 13:04:51;;;;;;;5.55;1.10;;;21.70;99.90;;;;;;5054680;28;20032;-51
2022/08/08 13:07:18;;;;;;;5.30;1.08;;;21.70;99.90;;;;;;5055091;28;20040;-51
2022/08/08 13:09:58;;;;;;;6.05;1.05;;;21.90;99.90;;;;;;5055000;28;20059;-49
2022/08/08 13:12:26;;;;;;;4.50;1.15;;;21.90;99.90;;;;;;5054475;28;20159;-48
2022/08/08 13:14:55;;;;;;;3.25;1.25;;;22.00;99.90;;;;;;5055186;28;20056;-48
2022/08/08 13:17:24;;;;;;;3.92;0.90;;;22.00;99.90;;;;;;5055341;28;20047;-49
2022/08/08 13:19:50;;;;;;;3.85;0.93;;;22.10;99.90;;;;;;5053978;28;20473;-49
2022/08/08 13:22:18;;;;;;;3.60;0.90;;;22.20;99.90;;;;;;5053572;28;20043;-48
2022/08/08 13:24:44;;;;;;;4.45;0.93;;;22.10;99.90;;;;;;5054618;28;20751;-48
2022/08/08 13:27:12;;;;;;;2.78;0.75;;;22.30;99.90;;;;;;5054329;28;20040;-48